< < Back
Terminal Aerodrome Forecast


Current Version              Previous Versions:   1  2  3  4  5  6  7  8  9  

Terminal Aerodrome Forecast

824
FTUS42 KFFC 252333
TAFCSG
TAF
KCSG 252333Z 2600/2624 20007KT P6SM SCT070
     FM260200 00000KT P6SM FEW150
     FM261400 20004KT P6SM FEW150
     FM261700 20007KT P6SM SCT060=

Latest METAR

415
SAUS70 KWBC 261000
MTRCSG
METAR KCSG 260951Z AUTO 00000KT 10SM CLR 19/17 A3015 RMK AO2 SLP203
T01890172


USA.gov is the U.S. government's official web portal to all federal, state and local government web resources and services.